createdAt,value
2017-06-24T00:00:01.320Z,16.52
2017-06-24T00:02:29.093Z,16.37
2017-06-24T00:04:56.900Z,15.85
2017-06-24T00:07:24.669Z,13.93
2017-06-24T00:09:52.436Z,15.07
2017-06-24T00:12:20.230Z,17.58
2017-06-24T00:14:48.014Z,14.20
2017-06-24T00:17:15.830Z,12.98
2017-06-24T00:19:44.368Z,14.25
2017-06-24T00:22:12.139Z,15.43
2017-06-24T00:24:39.945Z,12.70
2017-06-24T00:27:08.476Z,11.93
2017-06-24T00:29:36.287Z,13.02
2017-06-24T00:32:04.057Z,15.38
2017-06-24T00:34:31.828Z,14.77
2017-06-24T00:36:59.623Z,13.93
2017-06-24T00:39:27.391Z,13.75
2017-06-24T00:41:55.199Z,14.82
2017-06-24T00:44:23.738Z,14.00
2017-06-24T00:46:51.505Z,13.25
2017-06-24T00:49:19.301Z,14.10
2017-06-24T00:51:47.852Z,13.13
2017-06-24T00:54:15.669Z,12.60
2017-06-24T00:56:43.443Z,13.02
2017-06-24T00:59:11.213Z,14.10
2017-06-24T01:01:39.016Z,13.90
2017-06-24T01:04:07.564Z,13.00
2017-06-24T01:06:35.381Z,12.18
2017-06-24T01:09:03.192Z,16.52
2017-06-24T01:11:30.956Z,16.77
2017-06-24T01:13:58.765Z,12.35
2017-06-24T01:16:26.540Z,12.00
2017-06-24T01:18:54.357Z,11.75
2017-06-24T01:21:22.145Z,14.20
2017-06-24T01:23:50.683Z,11.73
2017-06-24T01:26:18.488Z,12.43
2017-06-24T01:28:46.267Z,12.30
2017-06-24T01:31:14.084Z,12.27
2017-06-24T01:33:41.855Z,13.27
2017-06-24T01:36:09.624Z,12.95
2017-06-24T01:38:38.242Z,12.05
2017-06-24T01:41:06.024Z,11.80
2017-06-24T01:43:33.853Z,11.75
2017-06-24T01:46:01.629Z,11.52
2017-06-24T01:48:29.438Z,12.40
2017-06-24T01:50:57.275Z,10.50
2017-06-24T01:53:25.040Z,11.07
2017-06-24T01:55:52.852Z,13.13
2017-06-24T01:58:20.625Z,10.10
2017-06-24T02:00:48.401Z,13.00
2017-06-24T02:03:16.205Z,11.85
2017-06-24T02:05:44.018Z,13.30
2017-06-24T02:08:11.873Z,11.98
2017-06-24T02:10:39.640Z,13.48
2017-06-24T02:13:07.412Z,12.27
2017-06-24T02:15:35.216Z,12.25
2017-06-24T02:18:02.985Z,13.93
2017-06-24T02:20:30.813Z,12.95
2017-06-24T02:22:58.586Z,12.93
2017-06-24T02:25:26.353Z,12.13
2017-06-24T02:27:54.158Z,12.13
2017-06-24T02:30:22.705Z,11.48
2017-06-24T02:32:50.784Z,13.32
2017-06-24T02:35:18.551Z,12.25
2017-06-24T02:37:47.089Z,13.68
2017-06-24T02:40:14.897Z,13.13
2017-06-24T02:42:43.438Z,11.70
2017-06-24T02:45:11.247Z,13.48
2017-06-24T02:47:39.783Z,12.77
2017-06-24T02:50:07.553Z,11.43
2017-06-24T02:52:35.364Z,10.95
2017-06-24T02:55:03.124Z,12.88
2017-06-24T02:57:30.973Z,12.30
2017-06-24T02:59:59.504Z,12.65
2017-06-24T03:02:27.240Z,12.23
2017-06-24T03:04:55.010Z,13.40
2017-06-24T03:07:22.750Z,11.73
2017-06-24T03:09:50.527Z,13.07
2017-06-24T03:12:30.040Z,13.27
2017-06-24T03:14:58.593Z,13.60
2017-06-24T03:17:26.338Z,15.48
2017-06-24T03:19:54.080Z,12.10
2017-06-24T03:22:21.846Z,13.68
2017-06-24T03:24:49.583Z,13.52
2017-06-24T03:27:17.373Z,14.85
2017-06-24T03:29:45.121Z,13.23
2017-06-24T03:32:12.859Z,13.73
2017-06-24T03:34:40.637Z,14.65
2017-06-24T03:37:08.375Z,13.40
2017-06-24T03:39:36.194Z,14.70
2017-06-24T03:42:03.937Z,12.98
2017-06-24T03:44:31.680Z,14.95
2017-06-24T03:46:59.448Z,12.85
2017-06-24T03:49:27.184Z,13.75
2017-06-24T03:51:54.964Z,13.32
2017-06-24T03:54:22.707Z,11.80
2017-06-24T03:56:50.452Z,12.90
2017-06-24T03:59:18.992Z,11.00
2017-06-24T04:01:46.736Z,11.43
2017-06-24T04:04:14.529Z,12.60
2017-06-24T04:06:42.268Z,11.35
2017-06-24T04:09:10.013Z,14.65
2017-06-24T04:11:37.786Z,11.95
2017-06-24T04:14:05.561Z,11.68
2017-06-24T04:16:33.340Z,11.90
2017-06-24T04:19:01.075Z,10.90
2017-06-24T04:21:28.815Z,12.25
2017-06-24T04:23:56.581Z,12.13
2017-06-24T04:26:24.309Z,11.30
2017-06-24T04:28:52.855Z,10.52
2017-06-24T04:31:20.600Z,11.07
2017-06-24T04:33:48.340Z,9.60
2017-06-24T04:36:16.112Z,11.95
2017-06-24T04:38:43.845Z,9.95
2017-06-24T04:41:11.653Z,10.40
2017-06-24T04:43:39.396Z,11.85
2017-06-24T04:46:07.137Z,9.27
2017-06-24T04:48:34.897Z,10.02
2017-06-24T04:51:02.639Z,10.90
2017-06-24T04:53:31.197Z,10.77
2017-06-24T04:55:58.932Z,11.45
2017-06-24T04:58:26.668Z,10.90
2017-06-24T05:00:54.436Z,10.90
2017-06-24T05:03:22.173Z,9.43
2017-06-24T05:05:49.948Z,9.85
2017-06-24T05:08:17.681Z,9.07
2017-06-24T05:10:46.188Z,13.80
2017-06-24T05:13:13.960Z,11.07
2017-06-24T05:15:41.701Z,10.70
2017-06-24T05:18:09.484Z,14.00
2017-06-24T05:20:37.219Z,11.95
2017-06-24T05:23:04.951Z,10.23
2017-06-24T05:25:32.721Z,10.00
2017-06-24T05:28:01.220Z,9.80
2017-06-24T05:30:29.002Z,10.68
2017-06-24T05:32:56.737Z,10.13
2017-06-24T05:35:25.237Z,10.38
2017-06-24T05:37:53.000Z,9.65
2017-06-24T05:40:20.734Z,8.85
2017-06-24T05:42:49.268Z,8.52
2017-06-24T05:45:17.040Z,10.00
2017-06-24T05:47:44.827Z,11.15
2017-06-24T05:50:13.371Z,11.80
2017-06-24T05:52:41.116Z,10.73
2017-06-24T05:55:08.896Z,10.90
2017-06-24T05:57:36.631Z,11.43
2017-06-24T06:00:04.364Z,10.30
2017-06-24T06:02:32.995Z,11.05
2017-06-24T06:05:00.725Z,11.40
2017-06-24T06:07:28.521Z,12.00
2017-06-24T06:09:56.326Z,11.60
2017-06-24T06:12:24.823Z,12.75
2017-06-24T06:14:52.713Z,12.07
2017-06-24T06:17:20.457Z,11.70
2017-06-24T06:19:48.288Z,12.32
2017-06-24T06:22:16.840Z,11.65
2017-06-24T06:24:44.582Z,10.80
2017-06-24T06:27:12.422Z,11.10
2017-06-24T06:29:40.210Z,11.00
2017-06-24T06:32:07.968Z,11.30
2017-06-24T06:34:35.709Z,10.73
2017-06-24T06:37:03.483Z,11.70
2017-06-24T06:39:31.245Z,12.07
2017-06-24T06:41:58.992Z,12.20
2017-06-24T06:44:26.774Z,11.32
2017-06-24T06:46:54.522Z,11.23
2017-06-24T06:49:22.273Z,11.85
2017-06-24T06:51:50.057Z,12.73
2017-06-24T06:54:17.826Z,13.05
2017-06-24T06:56:48.951Z,11.07
2017-06-24T06:59:19.409Z,11.68
2017-06-24T07:01:47.191Z,10.23
2017-06-24T07:04:15.011Z,10.27
2017-06-24T07:06:42.757Z,11.97
2017-06-24T07:09:10.553Z,10.30
2017-06-24T07:11:38.288Z,11.20
2017-06-24T07:14:06.265Z,12.50
2017-06-24T07:16:34.039Z,11.07
2017-06-24T07:19:01.794Z,13.48
2017-06-24T07:21:29.577Z,13.07
2017-06-24T07:23:58.099Z,11.68
2017-06-24T07:26:25.884Z,13.10
2017-06-24T07:28:53.684Z,12.10
2017-06-24T07:31:22.187Z,11.65
2017-06-24T07:33:50.480Z,11.68
2017-06-24T07:36:18.231Z,12.10
2017-06-24T07:38:46.018Z,11.57
2017-06-24T07:41:13.772Z,10.90
2017-06-24T07:43:41.516Z,11.30
2017-06-24T07:46:09.422Z,13.53
2017-06-24T07:48:37.436Z,12.77
2017-06-24T07:51:06.064Z,10.93
2017-06-24T07:53:33.811Z,11.80
2017-06-24T07:56:01.584Z,12.93
2017-06-24T07:58:29.358Z,12.10
2017-06-24T08:00:57.103Z,11.40
2017-06-24T08:03:24.883Z,12.02
2017-06-24T08:05:52.638Z,11.82
2017-06-24T08:08:20.389Z,11.82
2017-06-24T08:10:48.173Z,11.10
2017-06-24T08:13:16.201Z,10.00
2017-06-24T08:15:43.991Z,12.30
2017-06-24T08:18:11.732Z,11.60
2017-06-24T08:20:39.472Z,11.93
2017-06-24T08:23:07.263Z,11.73
2017-06-24T08:25:35.001Z,10.77
2017-06-24T08:28:02.915Z,10.50
2017-06-24T08:30:31.743Z,12.70
2017-06-24T08:32:59.485Z,11.27
2017-06-24T08:35:30.856Z,24.90
2017-06-24T08:37:58.605Z,13.97
2017-06-24T08:40:26.771Z,11.80
2017-06-24T08:42:55.877Z,11.83
2017-06-24T08:45:23.632Z,13.23
2017-06-24T08:47:51.411Z,11.00
2017-06-24T08:50:19.337Z,10.53
2017-06-24T08:52:47.889Z,10.53
2017-06-24T08:55:15.622Z,14.17
2017-06-24T08:57:43.352Z,8.97
2017-06-24T09:00:11.884Z,14.83
2017-06-24T09:02:40.460Z,9.40
2017-06-24T09:05:08.246Z,10.57
2017-06-24T09:07:35.984Z,11.33
2017-06-24T09:10:04.050Z,11.37
2017-06-24T09:12:31.844Z,11.43
2017-06-24T09:14:59.801Z,8.93
2017-06-24T09:17:27.584Z,18.50
2017-06-24T09:19:56.102Z,9.87
2017-06-24T09:22:23.832Z,7.80
2017-06-24T09:24:52.386Z,7.10
2017-06-24T09:27:20.484Z,8.07
2017-06-24T09:29:48.252Z,9.47
2017-06-24T09:32:15.981Z,8.47
2017-06-24T09:34:43.712Z,7.37
2017-06-24T09:37:11.473Z,7.60
2017-06-24T09:39:39.212Z,7.53
2017-06-24T09:42:06.989Z,9.17
2017-06-24T09:44:34.733Z,10.23
2017-06-24T09:47:02.476Z,11.13
2017-06-24T09:49:30.232Z,7.47
2017-06-24T09:51:58.039Z,6.70
2017-06-24T09:54:25.896Z,8.00
2017-06-24T09:56:53.634Z,9.87
2017-06-24T09:59:21.403Z,7.20
2017-06-24T10:01:49.189Z,8.80
2017-06-24T10:04:16.931Z,8.67
2017-06-24T10:06:44.711Z,11.03
2017-06-24T10:09:12.449Z,8.80
2017-06-24T10:11:40.188Z,7.63
2017-06-24T10:14:07.953Z,7.10
2017-06-24T10:16:35.713Z,7.83
2017-06-24T10:19:03.495Z,8.03
2017-06-24T10:21:31.236Z,8.30
2017-06-24T10:23:58.976Z,6.15
2017-06-24T10:26:27.517Z,7.47
2017-06-24T10:28:55.260Z,7.57
2017-06-24T10:31:26.461Z,8.65
2017-06-24T10:33:55.021Z,7.20
2017-06-24T10:36:23.627Z,8.48
2017-06-24T10:38:51.432Z,7.30
2017-06-24T10:41:19.232Z,8.13
2017-06-24T10:43:47.108Z,6.93
2017-06-24T10:46:15.619Z,8.27
2017-06-24T10:48:43.425Z,7.37
2017-06-24T10:51:11.198Z,6.87
2017-06-24T10:53:38.947Z,7.25
2017-06-24T10:56:06.731Z,6.07
2017-06-24T10:58:35.239Z,6.07
2017-06-24T11:01:02.975Z,5.25
2017-06-24T11:03:31.512Z,5.90
2017-06-24T11:05:59.248Z,8.32
2017-06-24T11:08:27.026Z,7.03
2017-06-24T11:10:54.761Z,6.80
2017-06-24T11:13:22.500Z,7.90
2017-06-24T11:15:51.043Z,6.45
2017-06-24T11:18:18.785Z,6.68
2017-06-24T11:20:46.559Z,8.10
2017-06-24T11:23:14.293Z,5.97
2017-06-24T11:25:42.028Z,6.95
2017-06-24T11:28:10.557Z,5.87
2017-06-24T11:30:38.303Z,7.05
2017-06-24T11:33:06.268Z,6.03
2017-06-24T11:35:34.032Z,5.90
2017-06-24T11:38:01.776Z,6.18
2017-06-24T11:40:29.540Z,5.60
2017-06-24T11:42:57.277Z,7.00
2017-06-24T11:45:26.028Z,6.22
2017-06-24T11:47:53.759Z,5.78
2017-06-24T11:50:21.488Z,7.25
2017-06-24T11:52:49.265Z,5.97
2017-06-24T11:55:17.008Z,5.43
2017-06-24T11:57:44.805Z,5.10
2017-06-24T12:00:12.555Z,5.72
2017-06-24T12:02:40.294Z,5.70
2017-06-24T12:05:08.060Z,5.65
2017-06-24T12:07:35.805Z,5.85
2017-06-24T12:10:04.348Z,7.35
2017-06-24T12:12:32.085Z,6.55
2017-06-24T12:14:59.819Z,5.07
2017-06-24T12:17:27.586Z,6.95
2017-06-24T12:19:55.323Z,5.03
2017-06-24T12:22:23.880Z,9.13
2017-06-24T12:24:51.617Z,6.57
2017-06-24T12:27:19.356Z,6.05
2017-06-24T12:29:47.152Z,7.85
2017-06-24T12:32:14.899Z,7.22
2017-06-24T12:34:42.671Z,6.62
2017-06-24T12:37:10.408Z,6.68
2017-06-24T12:39:38.153Z,6.10
2017-06-24T12:42:05.937Z,5.95
2017-06-24T12:44:33.677Z,5.95
2017-06-24T12:47:01.452Z,5.70
2017-06-24T12:49:29.188Z,6.90
2017-06-24T12:51:57.691Z,5.05
2017-06-24T12:54:25.457Z,4.93
2017-06-24T12:56:53.196Z,5.50
2017-06-24T12:59:20.976Z,5.85
2017-06-24T13:01:48.715Z,6.05
2017-06-24T13:04:16.454Z,6.15
2017-06-24T13:06:44.989Z,5.15
2017-06-24T13:09:12.734Z,4.97
2017-06-24T13:11:40.509Z,5.18
2017-06-24T13:14:08.271Z,5.62
2017-06-24T13:16:36.011Z,5.07
2017-06-24T13:19:03.794Z,5.80
2017-06-24T13:21:31.537Z,6.70
2017-06-24T13:23:59.319Z,5.75
2017-06-24T13:26:27.055Z,6.30
2017-06-24T13:28:54.796Z,5.97
2017-06-24T13:31:23.344Z,4.97
2017-06-24T13:33:51.080Z,5.62
2017-06-24T13:36:18.856Z,6.45
2017-06-24T13:38:46.596Z,5.45
2017-06-24T13:41:14.340Z,6.20
2017-06-24T13:43:42.105Z,6.18
2017-06-24T13:46:09.844Z,6.03
2017-06-24T13:48:37.625Z,6.90
2017-06-24T13:51:05.369Z,6.22
2017-06-24T13:53:33.880Z,6.15
2017-06-24T13:56:01.659Z,5.32
2017-06-24T13:58:29.404Z,6.25
2017-06-24T14:00:57.180Z,5.50
2017-06-24T14:03:24.917Z,6.70
2017-06-24T14:05:52.660Z,5.68
2017-06-24T14:08:21.197Z,5.53
2017-06-24T14:10:48.927Z,5.43
2017-06-24T14:13:16.705Z,6.35
2017-06-24T14:15:44.438Z,7.40
2017-06-24T14:18:12.176Z,6.70
2017-06-24T14:20:40.699Z,6.43
2017-06-24T14:23:08.432Z,7.60
2017-06-24T14:25:36.215Z,7.03
2017-06-24T14:28:03.948Z,6.28
2017-06-24T14:30:31.683Z,7.57
2017-06-24T14:32:59.452Z,8.13
2017-06-24T14:35:27.947Z,6.78
2017-06-24T14:37:56.488Z,6.10
2017-06-24T14:40:24.221Z,5.60
2017-06-24T14:42:51.964Z,5.72
2017-06-24T14:45:19.732Z,6.37
2017-06-24T14:47:47.465Z,6.45
2017-06-24T14:50:16.005Z,6.53
2017-06-24T14:52:43.743Z,5.93
2017-06-24T14:55:11.490Z,15.05
2017-06-24T14:57:39.270Z,5.53
2017-06-24T15:00:07.004Z,9.25
2017-06-24T15:02:34.793Z,5.70
2017-06-24T15:05:02.529Z,6.47
2017-06-24T15:07:30.269Z,6.25
2017-06-24T15:09:58.849Z,6.75
2017-06-24T15:12:27.349Z,6.62
2017-06-24T15:14:55.128Z,6.20
2017-06-24T15:17:22.884Z,5.95
2017-06-24T15:19:50.619Z,9.95
2017-06-24T15:22:19.155Z,6.15
2017-06-24T15:24:46.896Z,5.78
2017-06-24T15:27:14.678Z,6.18
2017-06-24T15:29:42.416Z,5.20
2017-06-24T15:32:10.155Z,5.20
2017-06-24T15:34:37.938Z,5.53
2017-06-24T15:37:05.673Z,5.00
2017-06-24T15:39:33.474Z,6.22
2017-06-24T15:42:01.208Z,5.05
2017-06-24T15:44:28.939Z,4.43
2017-06-24T15:46:57.465Z,4.30
2017-06-24T15:49:25.196Z,4.40
2017-06-24T15:51:52.965Z,4.45
2017-06-24T15:54:20.693Z,4.68
2017-06-24T15:56:48.421Z,4.47
2017-06-24T15:59:16.246Z,4.72
2017-06-24T16:01:43.977Z,5.12
2017-06-24T16:04:12.526Z,4.55
2017-06-24T16:06:40.264Z,5.45
2017-06-24T16:09:08.010Z,5.10
2017-06-24T16:11:35.779Z,5.03
2017-06-24T16:14:03.525Z,5.25
2017-06-24T16:16:31.301Z,9.73
2017-06-24T16:18:59.072Z,5.75
2017-06-24T16:21:26.814Z,5.07
2017-06-24T16:23:54.584Z,4.85
2017-06-24T16:26:22.317Z,5.90
2017-06-24T16:28:50.861Z,5.85
2017-06-24T16:31:18.612Z,7.05
2017-06-24T16:33:46.360Z,9.88
2017-06-24T16:36:14.143Z,4.57
2017-06-24T16:38:41.893Z,10.27
2017-06-24T16:41:09.683Z,8.50
2017-06-24T16:43:37.430Z,9.95
2017-06-24T16:46:05.170Z,4.78
2017-06-24T16:48:32.963Z,5.68
2017-06-24T16:51:00.714Z,10.10
2017-06-24T16:53:28.497Z,6.93
2017-06-24T16:55:56.243Z,4.72
2017-06-24T16:58:24.088Z,5.25
2017-06-24T17:00:51.864Z,5.07
2017-06-24T17:03:19.600Z,4.95
2017-06-24T17:05:47.422Z,4.12
2017-06-24T17:08:15.160Z,5.00
2017-06-24T17:10:42.900Z,5.65
2017-06-24T17:13:10.660Z,4.50
2017-06-24T17:15:38.413Z,9.18
2017-06-24T17:18:06.202Z,5.47
2017-06-24T17:20:33.944Z,4.10
2017-06-24T17:23:01.677Z,4.47
2017-06-24T17:25:29.442Z,4.00
2017-06-24T17:27:57.176Z,4.00
2017-06-24T17:30:25.717Z,4.60
2017-06-24T17:32:53.452Z,4.15
2017-06-24T17:35:21.194Z,5.85
2017-06-24T17:37:48.969Z,4.80
2017-06-24T17:40:16.708Z,4.18
2017-06-24T17:42:44.475Z,5.75
2017-06-24T17:45:12.627Z,4.80
2017-06-24T17:47:41.289Z,4.57
2017-06-24T17:50:09.813Z,6.28
2017-06-24T17:52:37.547Z,5.03
2017-06-24T17:55:06.085Z,4.47
2017-06-24T17:57:33.830Z,5.10
2017-06-24T18:00:03.195Z,4.80
2017-06-24T18:02:31.701Z,4.90
2017-06-24T18:04:59.441Z,6.18
2017-06-24T18:07:27.216Z,6.45
2017-06-24T18:09:54.957Z,4.10
2017-06-24T18:12:22.742Z,5.60
2017-06-24T18:14:50.484Z,6.47
2017-06-24T18:17:18.224Z,6.00
2017-06-24T18:19:46.760Z,6.80
2017-06-24T18:22:14.506Z,6.00
2017-06-24T18:24:42.292Z,14.57
2017-06-24T18:27:10.049Z,10.98
2017-06-24T18:29:37.790Z,9.30
2017-06-24T18:32:05.561Z,9.55
2017-06-24T18:34:33.302Z,7.05
2017-06-24T18:37:01.097Z,6.80
2017-06-24T18:39:28.854Z,7.30
2017-06-24T18:41:56.597Z,8.00
2017-06-24T18:44:24.376Z,9.77
2017-06-24T18:46:52.122Z,27.83
2017-06-24T18:49:19.913Z,19.73
2017-06-24T18:51:47.672Z,17.40
2017-06-24T18:54:15.417Z,16.50
2017-06-24T18:56:43.200Z,13.45
2017-06-24T18:59:10.936Z,17.02
2017-06-24T19:01:38.717Z,16.42
2017-06-24T19:04:06.461Z,16.58
2017-06-24T19:06:34.206Z,16.10
2017-06-24T19:09:01.980Z,10.07
2017-06-24T19:11:29.722Z,8.63
2017-06-24T19:13:57.504Z,12.63
2017-06-24T19:16:25.268Z,10.93
2017-06-24T19:18:53.034Z,11.05
2017-06-24T19:21:20.814Z,10.25
2017-06-24T19:23:48.562Z,11.82
2017-06-24T19:26:16.344Z,10.48
2017-06-24T19:28:44.097Z,15.18
2017-06-24T19:31:11.848Z,18.60
2017-06-24T19:33:39.638Z,11.43
2017-06-24T19:36:08.157Z,11.38
2017-06-24T19:38:35.992Z,16.75
2017-06-24T19:41:04.882Z,12.10
2017-06-24T19:43:33.401Z,8.98
2017-06-24T19:46:01.178Z,7.95
2017-06-24T19:48:28.917Z,8.05
2017-06-24T19:50:56.735Z,7.60
2017-06-24T19:53:25.237Z,6.70
2017-06-24T19:55:52.974Z,8.00
2017-06-24T19:58:21.576Z,8.98
2017-06-24T20:00:49.335Z,8.88
2017-06-24T20:03:17.112Z,10.05
2017-06-24T20:05:44.852Z,9.45
2017-06-24T20:08:13.353Z,9.57
2017-06-24T20:10:41.117Z,11.07
2017-06-24T20:13:08.853Z,8.10
2017-06-24T20:15:37.387Z,9.60
2017-06-24T20:18:05.144Z,9.20
2017-06-24T20:20:32.885Z,10.00
2017-06-24T20:23:01.708Z,9.32
2017-06-24T20:25:29.447Z,11.25
2017-06-24T20:27:57.249Z,10.43
2017-06-24T20:30:25.022Z,8.77
2017-06-24T20:32:53.533Z,9.52
2017-06-24T20:35:21.300Z,6.78
2017-06-24T20:37:49.028Z,8.20
2017-06-24T20:40:17.622Z,7.75
2017-06-24T20:42:45.380Z,7.10
2017-06-24T20:45:13.123Z,8.00
2017-06-24T20:47:41.648Z,7.47
2017-06-24T20:50:09.391Z,7.78
2017-06-24T20:52:37.163Z,6.35
2017-06-24T20:55:04.900Z,5.82
2017-06-24T20:57:32.652Z,7.25
2017-06-24T21:00:01.184Z,6.20
2017-06-24T21:02:28.922Z,7.00
2017-06-24T21:04:56.704Z,9.32
2017-06-24T21:07:24.439Z,6.75
2017-06-24T21:09:52.164Z,7.55
2017-06-24T21:12:19.966Z,6.20
2017-06-24T21:14:47.701Z,6.97
2017-06-24T21:17:16.243Z,8.93
2017-06-24T21:19:43.976Z,8.50
2017-06-24T21:22:11.720Z,10.02
2017-06-24T21:24:39.493Z,7.22
2017-06-24T21:27:07.234Z,8.52
2017-06-24T21:29:35.009Z,7.43
2017-06-24T21:32:02.749Z,9.40
2017-06-24T21:34:31.260Z,9.82
2017-06-24T21:36:59.057Z,8.20
2017-06-24T21:39:26.804Z,7.60
2017-06-24T21:41:54.586Z,6.80
2017-06-24T21:44:22.337Z,7.32
2017-06-24T21:46:50.078Z,7.53
2017-06-24T21:49:17.841Z,8.75
2017-06-24T21:51:45.577Z,7.57
2017-06-24T21:54:13.364Z,7.55
2017-06-24T21:56:41.104Z,7.53
2017-06-24T21:59:08.835Z,7.03
2017-06-24T22:01:37.380Z,8.80
2017-06-24T22:04:05.153Z,9.60
2017-06-24T22:06:32.952Z,7.82
2017-06-24T22:09:00.718Z,10.07
2017-06-24T22:11:28.482Z,11.25
2017-06-24T22:13:56.264Z,14.02
2017-06-24T22:16:24.020Z,12.18
2017-06-24T22:18:51.816Z,12.88
2017-06-24T22:21:19.578Z,18.10
2017-06-24T22:23:47.334Z,12.98
2017-06-24T22:26:15.126Z,14.43
2017-06-24T22:28:43.677Z,13.52
2017-06-24T22:31:11.474Z,13.52
2017-06-24T22:33:40.031Z,17.00
2017-06-24T22:36:07.788Z,12.93
2017-06-24T22:38:35.640Z,14.48
2017-06-24T22:41:03.386Z,14.77
2017-06-24T22:43:31.253Z,14.10
2017-06-24T22:45:59.001Z,15.68
2017-06-24T22:48:26.764Z,15.10
2017-06-24T22:50:54.548Z,15.88
2017-06-24T22:53:22.324Z,15.35
2017-06-24T22:55:50.117Z,16.30
2017-06-24T22:58:17.906Z,14.65
2017-06-24T23:00:45.668Z,18.25
2017-06-24T23:03:13.459Z,14.95
2017-06-24T23:05:41.223Z,15.57
2017-06-24T23:08:09.015Z,16.48
2017-06-24T23:10:37.538Z,15.85
2017-06-24T23:13:05.285Z,18.10
2017-06-24T23:15:33.101Z,18.90
2017-06-24T23:18:00.866Z,16.87
2017-06-24T23:20:28.833Z,17.35
2017-06-24T23:22:56.602Z,15.10
2017-06-24T23:25:24.351Z,17.15
2017-06-24T23:27:52.133Z,15.60
2017-06-24T23:30:20.659Z,17.52
2017-06-24T23:32:48.446Z,16.10
2017-06-24T23:35:16.651Z,16.10
2017-06-24T23:37:45.170Z,19.62
2017-06-24T23:40:12.956Z,15.88
2017-06-24T23:42:40.705Z,17.02
2017-06-24T23:45:08.493Z,16.00
2017-06-24T23:47:36.242Z,16.60
2017-06-24T23:50:03.994Z,16.98
2017-06-24T23:52:31.783Z,15.48
2017-06-24T23:55:00.326Z,15.68
2017-06-24T23:57:28.124Z,13.68
2017-06-24T23:59:56.637Z,15.88
